sensor_id;sensor_type;location;lat;lon;timestamp;P1;durP1;ratioP1;P2;durP2;ratioP2
70247;SDS011;57641;51.416;5.506;2022-10-19T00:00:49;7.78;;;3.92;;
70247;SDS011;57641;51.416;5.506;2022-10-19T00:03:15;6.10;;;4.13;;
70247;SDS011;57641;51.416;5.506;2022-10-19T00:05:41;5.95;;;3.97;;
70247;SDS011;57641;51.416;5.506;2022-10-19T00:08:07;9.25;;;4.00;;
70247;SDS011;57641;51.416;5.506;2022-10-19T00:10:33;6.55;;;4.00;;
70247;SDS011;57641;51.416;5.506;2022-10-19T00:12:58;8.95;;;3.95;;
70247;SDS011;57641;51.416;5.506;2022-10-19T00:15:24;12.00;;;4.50;;
70247;SDS011;57641;51.416;5.506;2022-10-19T00:17:50;6.70;;;4.18;;
70247;SDS011;57641;51.416;5.506;2022-10-19T00:20:15;9.73;;;4.10;;
70247;SDS011;57641;51.416;5.506;2022-10-19T00:22:41;10.48;;;4.32;;
70247;SDS011;57641;51.416;5.506;2022-10-19T00:25:06;10.27;;;3.92;;
70247;SDS011;57641;51.416;5.506;2022-10-19T00:27:32;6.25;;;3.70;;
70247;SDS011;57641;51.416;5.506;2022-10-19T00:29:58;15.25;;;4.32;;
70247;SDS011;57641;51.416;5.506;2022-10-19T00:32:23;8.13;;;3.60;;
70247;SDS011;57641;51.416;5.506;2022-10-19T00:34:49;9.60;;;4.00;;
70247;SDS011;57641;51.416;5.506;2022-10-19T00:37:14;7.82;;;3.53;;
70247;SDS011;57641;51.416;5.506;2022-10-19T00:39:39;6.80;;;3.33;;
70247;SDS011;57641;51.416;5.506;2022-10-19T00:42:05;5.45;;;3.13;;
70247;SDS011;57641;51.416;5.506;2022-10-19T00:46:59;6.93;;;3.58;;
70247;SDS011;57641;51.416;5.506;2022-10-19T00:49:29;8.82;;;3.58;;
70247;SDS011;57641;51.416;5.506;2022-10-19T00:52:02;8.95;;;3.63;;
70247;SDS011;57641;51.416;5.506;2022-10-19T00:54:30;7.63;;;3.83;;
70247;SDS011;57641;51.416;5.506;2022-10-19T00:56:57;5.03;;;3.42;;
70247;SDS011;57641;51.416;5.506;2022-10-19T00:59:24;8.15;;;3.55;;
70247;SDS011;57641;51.416;5.506;2022-10-19T01:01:52;9.07;;;3.55;;
70247;SDS011;57641;51.416;5.506;2022-10-19T01:04:19;7.80;;;3.45;;
70247;SDS011;57641;51.416;5.506;2022-10-19T01:06:46;9.80;;;3.60;;
70247;SDS011;57641;51.416;5.506;2022-10-19T01:09:12;7.82;;;3.55;;
70247;SDS011;57641;51.416;5.506;2022-10-19T01:14:25;8.50;;;4.38;;
70247;SDS011;57641;51.416;5.506;2022-10-19T01:30:47;4.88;;;3.13;;
70247;SDS011;57641;51.416;5.506;2022-10-19T01:34:23;6.00;;;3.20;;
70247;SDS011;57641;51.416;5.506;2022-10-19T01:36:42;5.82;;;3.30;;
70247;SDS011;57641;51.416;5.506;2022-10-19T01:44:40;8.88;;;4.05;;
70247;SDS011;57641;51.416;5.506;2022-10-19T01:47:21;8.63;;;3.30;;
70247;SDS011;57641;51.416;5.506;2022-10-19T01:52:25;8.10;;;3.67;;
70247;SDS011;57641;51.416;5.506;2022-10-19T01:54:54;9.00;;;3.22;;
70247;SDS011;57641;51.416;5.506;2022-10-19T01:57:23;8.23;;;3.33;;
70247;SDS011;57641;51.416;5.506;2022-10-19T02:00:10;6.32;;;3.38;;
70247;SDS011;57641;51.416;5.506;2022-10-19T02:02:42;6.22;;;2.92;;
70247;SDS011;57641;51.416;5.506;2022-10-19T02:05:11;8.00;;;3.30;;
70247;SDS011;57641;51.416;5.506;2022-10-19T02:07:40;6.30;;;2.78;;
70247;SDS011;57641;51.416;5.506;2022-10-19T02:10:09;10.27;;;3.30;;
70247;SDS011;57641;51.416;5.506;2022-10-19T02:12:35;6.50;;;3.40;;
70247;SDS011;57641;51.416;5.506;2022-10-19T02:15:03;7.72;;;3.97;;
70247;SDS011;57641;51.416;5.506;2022-10-19T02:17:36;5.95;;;2.95;;
70247;SDS011;57641;51.416;5.506;2022-10-19T02:20:06;6.43;;;3.95;;
70247;SDS011;57641;51.416;5.506;2022-10-19T02:22:32;7.50;;;3.17;;
70247;SDS011;57641;51.416;5.506;2022-10-19T02:24:57;8.60;;;4.20;;
70247;SDS011;57641;51.416;5.506;2022-10-19T02:27:23;9.43;;;3.42;;
70247;SDS011;57641;51.416;5.506;2022-10-19T02:29:49;11.95;;;3.40;;
70247;SDS011;57641;51.416;5.506;2022-10-19T02:32:15;8.50;;;3.92;;
70247;SDS011;57641;51.416;5.506;2022-10-19T02:34:41;8.77;;;3.20;;
70247;SDS011;57641;51.416;5.506;2022-10-19T02:37:06;7.57;;;4.00;;
70247;SDS011;57641;51.416;5.506;2022-10-19T02:39:32;8.43;;;3.80;;
70247;SDS011;57641;51.416;5.506;2022-10-19T02:44:25;8.30;;;4.03;;
70247;SDS011;57641;51.416;5.506;2022-10-19T02:47:02;7.85;;;3.60;;
70247;SDS011;57641;51.416;5.506;2022-10-19T02:49:38;8.10;;;3.35;;
70247;SDS011;57641;51.416;5.506;2022-10-19T02:52:07;8.25;;;3.88;;
70247;SDS011;57641;51.416;5.506;2022-10-19T02:54:36;5.35;;;3.65;;
70247;SDS011;57641;51.416;5.506;2022-10-19T02:57:03;7.70;;;3.55;;
70247;SDS011;57641;51.416;5.506;2022-10-19T02:59:44;8.20;;;3.55;;
70247;SDS011;57641;51.416;5.506;2022-10-19T03:02:10;10.05;;;3.95;;
70247;SDS011;57641;51.416;5.506;2022-10-19T03:04:36;9.77;;;3.72;;
70247;SDS011;57641;51.416;5.506;2022-10-19T03:07:02;8.52;;;3.80;;
70247;SDS011;57641;51.416;5.506;2022-10-19T03:09:27;8.95;;;3.58;;
70247;SDS011;57641;51.416;5.506;2022-10-19T03:11:56;6.22;;;3.10;;
70247;SDS011;57641;51.416;5.506;2022-10-19T03:14:21;8.10;;;4.07;;
70247;SDS011;57641;51.416;5.506;2022-10-19T03:16:47;7.72;;;3.75;;
70247;SDS011;57641;51.416;5.506;2022-10-19T03:19:12;6.72;;;3.17;;
70247;SDS011;57641;51.416;5.506;2022-10-19T03:21:37;10.70;;;4.05;;
70247;SDS011;57641;51.416;5.506;2022-10-19T03:24:03;7.88;;;3.72;;
70247;SDS011;57641;51.416;5.506;2022-10-19T03:26:29;7.47;;;4.00;;
70247;SDS011;57641;51.416;5.506;2022-10-19T03:28:54;10.02;;;4.25;;
70247;SDS011;57641;51.416;5.506;2022-10-19T03:31:20;6.22;;;3.90;;
70247;SDS011;57641;51.416;5.506;2022-10-19T03:33:45;12.98;;;4.10;;
70247;SDS011;57641;51.416;5.506;2022-10-19T03:36:30;9.75;;;3.63;;
70247;SDS011;57641;51.416;5.506;2022-10-19T03:38:58;10.13;;;3.67;;
70247;SDS011;57641;51.416;5.506;2022-10-19T03:41:27;9.23;;;4.10;;
70247;SDS011;57641;51.416;5.506;2022-10-19T03:43:54;8.65;;;3.85;;
70247;SDS011;57641;51.416;5.506;2022-10-19T03:46:20;9.40;;;4.03;;
70247;SDS011;57641;51.416;5.506;2022-10-19T03:48:46;9.35;;;3.80;;
70247;SDS011;57641;51.416;5.506;2022-10-19T03:51:12;12.88;;;4.75;;
70247;SDS011;57641;51.416;5.506;2022-10-19T03:53:40;7.63;;;3.90;;
70247;SDS011;57641;51.416;5.506;2022-10-19T03:56:07;7.13;;;3.40;;
70247;SDS011;57641;51.416;5.506;2022-10-19T03:58:40;6.80;;;3.90;;
70247;SDS011;57641;51.416;5.506;2022-10-19T04:01:12;10.70;;;4.53;;
70247;SDS011;57641;51.416;5.506;2022-10-19T04:03:42;9.70;;;3.70;;
70247;SDS011;57641;51.416;5.506;2022-10-19T04:06:17;9.52;;;4.00;;
70247;SDS011;57641;51.416;5.506;2022-10-19T04:08:43;8.63;;;3.90;;
70247;SDS011;57641;51.416;5.506;2022-10-19T04:11:12;8.65;;;4.30;;
70247;SDS011;57641;51.416;5.506;2022-10-19T04:13:40;9.93;;;4.45;;
70247;SDS011;57641;51.416;5.506;2022-10-19T04:16:06;8.68;;;3.78;;
70247;SDS011;57641;51.416;5.506;2022-10-19T04:18:32;6.25;;;3.95;;
70247;SDS011;57641;51.416;5.506;2022-10-19T04:20:58;9.13;;;4.38;;
70247;SDS011;57641;51.416;5.506;2022-10-19T04:23:26;8.63;;;4.07;;
70247;SDS011;57641;51.416;5.506;2022-10-19T04:25:59;7.03;;;3.88;;
70247;SDS011;57641;51.416;5.506;2022-10-19T04:28:27;9.73;;;4.43;;
70247;SDS011;57641;51.416;5.506;2022-10-19T04:30:52;11.98;;;4.20;;
70247;SDS011;57641;51.416;5.506;2022-10-19T04:33:18;8.40;;;4.85;;
70247;SDS011;57641;51.416;5.506;2022-10-19T04:35:43;12.52;;;4.60;;
70247;SDS011;57641;51.416;5.506;2022-10-19T04:38:09;7.97;;;4.82;;
70247;SDS011;57641;51.416;5.506;2022-10-19T04:40:35;8.23;;;3.83;;
70247;SDS011;57641;51.416;5.506;2022-10-19T04:43:01;9.60;;;3.95;;
70247;SDS011;57641;51.416;5.506;2022-10-19T04:45:28;10.35;;;4.68;;
70247;SDS011;57641;51.416;5.506;2022-10-19T04:47:54;12.13;;;4.60;;
70247;SDS011;57641;51.416;5.506;2022-10-19T04:50:23;8.88;;;4.07;;
70247;SDS011;57641;51.416;5.506;2022-10-19T04:52:50;7.88;;;4.68;;
70247;SDS011;57641;51.416;5.506;2022-10-19T04:55:15;9.23;;;4.70;;
70247;SDS011;57641;51.416;5.506;2022-10-19T04:57:41;9.73;;;4.93;;
70247;SDS011;57641;51.416;5.506;2022-10-19T05:00:07;7.90;;;4.22;;
70247;SDS011;57641;51.416;5.506;2022-10-19T05:02:33;12.13;;;4.78;;
70247;SDS011;57641;51.416;5.506;2022-10-19T05:04:58;10.50;;;4.53;;
70247;SDS011;57641;51.416;5.506;2022-10-19T05:07:24;10.32;;;4.70;;
70247;SDS011;57641;51.416;5.506;2022-10-19T05:09:49;10.52;;;5.38;;
70247;SDS011;57641;51.416;5.506;2022-10-19T05:12:15;8.82;;;4.88;;
70247;SDS011;57641;51.416;5.506;2022-10-19T05:14:40;10.27;;;4.63;;
70247;SDS011;57641;51.416;5.506;2022-10-19T05:17:05;9.57;;;4.70;;
70247;SDS011;57641;51.416;5.506;2022-10-19T05:19:31;8.40;;;4.60;;
70247;SDS011;57641;51.416;5.506;2022-10-19T05:21:56;10.77;;;5.38;;
70247;SDS011;57641;51.416;5.506;2022-10-19T05:24:21;10.60;;;4.78;;
70247;SDS011;57641;51.416;5.506;2022-10-19T05:26:47;8.10;;;4.82;;
70247;SDS011;57641;51.416;5.506;2022-10-19T05:29:13;9.73;;;4.47;;
70247;SDS011;57641;51.416;5.506;2022-10-19T05:31:39;11.68;;;4.82;;
70247;SDS011;57641;51.416;5.506;2022-10-19T05:34:04;9.18;;;4.78;;
70247;SDS011;57641;51.416;5.506;2022-10-19T05:36:34;8.95;;;4.75;;
70247;SDS011;57641;51.416;5.506;2022-10-19T05:39:03;9.45;;;4.60;;
70247;SDS011;57641;51.416;5.506;2022-10-19T05:41:36;11.80;;;4.85;;
70247;SDS011;57641;51.416;5.506;2022-10-19T05:44:02;7.70;;;4.63;;
70247;SDS011;57641;51.416;5.506;2022-10-19T05:46:29;13.30;;;5.28;;
70247;SDS011;57641;51.416;5.506;2022-10-19T05:48:56;9.50;;;5.05;;
70247;SDS011;57641;51.416;5.506;2022-10-19T05:51:23;8.27;;;4.43;;
70247;SDS011;57641;51.416;5.506;2022-10-19T05:53:49;12.07;;;4.43;;
70247;SDS011;57641;51.416;5.506;2022-10-19T05:56:17;14.48;;;5.20;;
70247;SDS011;57641;51.416;5.506;2022-10-19T05:58:48;11.45;;;5.00;;
70247;SDS011;57641;51.416;5.506;2022-10-19T06:01:14;9.05;;;5.05;;
70247;SDS011;57641;51.416;5.506;2022-10-19T06:03:43;10.43;;;5.55;;
70247;SDS011;57641;51.416;5.506;2022-10-19T06:06:08;9.43;;;5.18;;
70247;SDS011;57641;51.416;5.506;2022-10-19T06:08:34;12.13;;;5.47;;
70247;SDS011;57641;51.416;5.506;2022-10-19T06:11:08;7.22;;;4.38;;
70247;SDS011;57641;51.416;5.506;2022-10-19T06:13:35;10.60;;;4.63;;
70247;SDS011;57641;51.416;5.506;2022-10-19T06:16:02;11.93;;;4.82;;
70247;SDS011;57641;51.416;5.506;2022-10-19T06:18:28;9.27;;;5.10;;
70247;SDS011;57641;51.416;5.506;2022-10-19T06:20:54;15.55;;;5.13;;
70247;SDS011;57641;51.416;5.506;2022-10-19T06:23:19;7.22;;;4.85;;
70247;SDS011;57641;51.416;5.506;2022-10-19T06:25:45;8.75;;;4.60;;
70247;SDS011;57641;51.416;5.506;2022-10-19T06:28:10;12.80;;;4.88;;
70247;SDS011;57641;51.416;5.506;2022-10-19T06:30:39;8.20;;;4.82;;
70247;SDS011;57641;51.416;5.506;2022-10-19T06:33:05;9.65;;;4.53;;
70247;SDS011;57641;51.416;5.506;2022-10-19T06:35:32;8.60;;;4.75;;
70247;SDS011;57641;51.416;5.506;2022-10-19T06:37:57;9.35;;;4.53;;
70247;SDS011;57641;51.416;5.506;2022-10-19T06:40:24;11.95;;;5.10;;
70247;SDS011;57641;51.416;5.506;2022-10-19T06:42:49;7.85;;;4.90;;
70247;SDS011;57641;51.416;5.506;2022-10-19T06:45:15;12.52;;;4.85;;
70247;SDS011;57641;51.416;5.506;2022-10-19T06:47:41;9.45;;;5.00;;
70247;SDS011;57641;51.416;5.506;2022-10-19T06:50:07;11.02;;;5.32;;
70247;SDS011;57641;51.416;5.506;2022-10-19T06:52:33;11.32;;;4.82;;
70247;SDS011;57641;51.416;5.506;2022-10-19T06:54:59;8.85;;;4.90;;
70247;SDS011;57641;51.416;5.506;2022-10-19T06:57:25;10.73;;;5.20;;
70247;SDS011;57641;51.416;5.506;2022-10-19T06:59:51;12.05;;;5.57;;
70247;SDS011;57641;51.416;5.506;2022-10-19T07:02:16;12.55;;;5.47;;
70247;SDS011;57641;51.416;5.506;2022-10-19T07:04:42;12.10;;;4.95;;
70247;SDS011;57641;51.416;5.506;2022-10-19T07:07:07;12.50;;;5.20;;
70247;SDS011;57641;51.416;5.506;2022-10-19T07:09:33;13.60;;;5.25;;
70247;SDS011;57641;51.416;5.506;2022-10-19T07:11:58;13.40;;;5.63;;
70247;SDS011;57641;51.416;5.506;2022-10-19T07:14:24;13.23;;;5.57;;
70247;SDS011;57641;51.416;5.506;2022-10-19T07:16:52;11.00;;;5.88;;
70247;SDS011;57641;51.416;5.506;2022-10-19T07:19:18;10.85;;;6.10;;
70247;SDS011;57641;51.416;5.506;2022-10-19T07:21:43;10.02;;;5.50;;
70247;SDS011;57641;51.416;5.506;2022-10-19T07:24:10;10.38;;;5.20;;
70247;SDS011;57641;51.416;5.506;2022-10-19T07:26:36;15.82;;;6.60;;
70247;SDS011;57641;51.416;5.506;2022-10-19T07:29:02;12.27;;;6.32;;
70247;SDS011;57641;51.416;5.506;2022-10-19T07:31:28;17.27;;;6.18;;
70247;SDS011;57641;51.416;5.506;2022-10-19T07:33:54;13.10;;;6.15;;
70247;SDS011;57641;51.416;5.506;2022-10-19T07:36:22;14.15;;;6.70;;
70247;SDS011;57641;51.416;5.506;2022-10-19T07:38:48;12.05;;;5.90;;
70247;SDS011;57641;51.416;5.506;2022-10-19T07:41:15;15.68;;;6.70;;
70247;SDS011;57641;51.416;5.506;2022-10-19T07:43:43;11.15;;;5.15;;
70247;SDS011;57641;51.416;5.506;2022-10-19T07:46:10;21.05;;;6.32;;
70247;SDS011;57641;51.416;5.506;2022-10-19T07:48:38;12.10;;;5.55;;
70247;SDS011;57641;51.416;5.506;2022-10-19T07:51:05;12.43;;;5.60;;
70247;SDS011;57641;51.416;5.506;2022-10-19T07:53:32;13.05;;;6.50;;
70247;SDS011;57641;51.416;5.506;2022-10-19T07:56:03;12.95;;;5.78;;
70247;SDS011;57641;51.416;5.506;2022-10-19T07:58:29;12.60;;;5.72;;
70247;SDS011;57641;51.416;5.506;2022-10-19T08:01:02;9.73;;;5.57;;
70247;SDS011;57641;51.416;5.506;2022-10-19T08:03:29;13.85;;;5.45;;
70247;SDS011;57641;51.416;5.506;2022-10-19T08:06:08;13.25;;;5.18;;
70247;SDS011;57641;51.416;5.506;2022-10-19T08:08:36;13.13;;;6.25;;
70247;SDS011;57641;51.416;5.506;2022-10-19T08:11:09;10.90;;;5.75;;
70247;SDS011;57641;51.416;5.506;2022-10-19T08:13:36;11.65;;;5.22;;
70247;SDS011;57641;51.416;5.506;2022-10-19T08:16:02;14.73;;;6.10;;
70247;SDS011;57641;51.416;5.506;2022-10-19T08:18:28;14.25;;;5.57;;
70247;SDS011;57641;51.416;5.506;2022-10-19T08:20:54;11.95;;;5.60;;
70247;SDS011;57641;51.416;5.506;2022-10-19T08:23:20;8.85;;;5.50;;
70247;SDS011;57641;51.416;5.506;2022-10-19T08:25:47;12.35;;;5.32;;
70247;SDS011;57641;51.416;5.506;2022-10-19T08:28:13;10.93;;;5.35;;
70247;SDS011;57641;51.416;5.506;2022-10-19T08:30:39;12.57;;;5.60;;
70247;SDS011;57641;51.416;5.506;2022-10-19T08:33:04;10.20;;;4.85;;
70247;SDS011;57641;51.416;5.506;2022-10-19T08:35:32;11.55;;;5.30;;
70247;SDS011;57641;51.416;5.506;2022-10-19T08:37:59;11.48;;;5.00;;
70247;SDS011;57641;51.416;5.506;2022-10-19T08:40:28;10.38;;;5.25;;
70247;SDS011;57641;51.416;5.506;2022-10-19T08:46:09;9.07;;;5.05;;
70247;SDS011;57641;51.416;5.506;2022-10-19T08:48:43;11.50;;;5.72;;
70247;SDS011;57641;51.416;5.506;2022-10-19T08:51:10;13.05;;;5.10;;
70247;SDS011;57641;51.416;5.506;2022-10-19T08:53:56;12.98;;;5.32;;
70247;SDS011;57641;51.416;5.506;2022-10-19T08:59:11;11.90;;;5.55;;
70247;SDS011;57641;51.416;5.506;2022-10-19T09:04:41;8.10;;;4.28;;
70247;SDS011;57641;51.416;5.506;2022-10-19T09:10:02;11.57;;;5.05;;
70247;SDS011;57641;51.416;5.506;2022-10-19T09:18:09;10.00;;;5.00;;
70247;SDS011;57641;51.416;5.506;2022-10-19T09:20:38;10.80;;;4.68;;
70247;SDS011;57641;51.416;5.506;2022-10-19T09:26:17;10.68;;;4.47;;
70247;SDS011;57641;51.416;5.506;2022-10-19T09:28:45;11.13;;;3.85;;
70247;SDS011;57641;51.416;5.506;2022-10-19T09:31:32;10.15;;;3.85;;
70247;SDS011;57641;51.416;5.506;2022-10-19T09:36:42;9.15;;;3.90;;
70247;SDS011;57641;51.416;5.506;2022-10-19T09:39:13;9.30;;;4.35;;
70247;SDS011;57641;51.416;5.506;2022-10-19T09:42:39;8.55;;;4.07;;
70247;SDS011;57641;51.416;5.506;2022-10-19T09:44:54;6.68;;;4.05;;
70247;SDS011;57641;51.416;5.506;2022-10-19T09:47:30;11.43;;;3.83;;
70247;SDS011;57641;51.416;5.506;2022-10-19T09:50:06;8.75;;;3.60;;
70247;SDS011;57641;51.416;5.506;2022-10-19T09:57:47;7.13;;;4.05;;
70247;SDS011;57641;51.416;5.506;2022-10-19T10:00:19;9.73;;;3.33;;
70247;SDS011;57641;51.416;5.506;2022-10-19T10:02:48;8.60;;;3.55;;
70247;SDS011;57641;51.416;5.506;2022-10-19T10:05:17;10.30;;;4.00;;
70247;SDS011;57641;51.416;5.506;2022-10-19T10:07:55;9.23;;;3.42;;
70247;SDS011;57641;51.416;5.506;2022-10-19T10:10:22;11.07;;;3.97;;
70247;SDS011;57641;51.416;5.506;2022-10-19T10:12:52;11.65;;;3.95;;
70247;SDS011;57641;51.416;5.506;2022-10-19T10:15:20;10.32;;;3.95;;
70247;SDS011;57641;51.416;5.506;2022-10-19T10:17:48;8.93;;;3.67;;
70247;SDS011;57641;51.416;5.506;2022-10-19T10:20:17;9.20;;;4.10;;
70247;SDS011;57641;51.416;5.506;2022-10-19T10:22:59;8.55;;;3.38;;
70247;SDS011;57641;51.416;5.506;2022-10-19T10:25:29;9.45;;;3.80;;
70247;SDS011;57641;51.416;5.506;2022-10-19T10:28:01;7.38;;;3.40;;
70247;SDS011;57641;51.416;5.506;2022-10-19T10:30:42;7.88;;;3.53;;
70247;SDS011;57641;51.416;5.506;2022-10-19T10:33:16;8.93;;;3.50;;
70247;SDS011;57641;51.416;5.506;2022-10-19T10:35:50;8.80;;;3.63;;
70247;SDS011;57641;51.416;5.506;2022-10-19T10:38:24;4.88;;;3.10;;
70247;SDS011;57641;51.416;5.506;2022-10-19T10:40:53;8.35;;;3.60;;
70247;SDS011;57641;51.416;5.506;2022-10-19T10:43:33;6.47;;;3.30;;
70247;SDS011;57641;51.416;5.506;2022-10-19T10:46:03;7.63;;;2.90;;
70247;SDS011;57641;51.416;5.506;2022-10-19T10:48:40;7.75;;;3.50;;
70247;SDS011;57641;51.416;5.506;2022-10-19T10:51:19;12.52;;;3.90;;
70247;SDS011;57641;51.416;5.506;2022-10-19T10:53:49;8.32;;;3.58;;
70247;SDS011;57641;51.416;5.506;2022-10-19T10:56:25;7.15;;;3.53;;
70247;SDS011;57641;51.416;5.506;2022-10-19T11:01:41;7.63;;;3.35;;
70247;SDS011;57641;51.416;5.506;2022-10-19T11:04:21;6.35;;;3.08;;
70247;SDS011;57641;51.416;5.506;2022-10-19T11:06:53;10.50;;;4.10;;
70247;SDS011;57641;51.416;5.506;2022-10-19T11:09:25;6.45;;;3.38;;
70247;SDS011;57641;51.416;5.506;2022-10-19T11:11:52;8.32;;;3.55;;
70247;SDS011;57641;51.416;5.506;2022-10-19T11:17:05;6.82;;;3.72;;
70247;SDS011;57641;51.416;5.506;2022-10-19T11:19:39;11.00;;;4.35;;
70247;SDS011;57641;51.416;5.506;2022-10-19T11:24:54;7.15;;;3.50;;
70247;SDS011;57641;51.416;5.506;2022-10-19T11:27:32;9.20;;;3.63;;
70247;SDS011;57641;51.416;5.506;2022-10-19T11:30:08;7.05;;;3.22;;
70247;SDS011;57641;51.416;5.506;2022-10-19T11:38:21;9.85;;;3.17;;
70247;SDS011;57641;51.416;5.506;2022-10-19T11:46:47;8.05;;;2.85;;
70247;SDS011;57641;51.416;5.506;2022-10-19T11:49:24;9.05;;;3.40;;
70247;SDS011;57641;51.416;5.506;2022-10-19T11:51:56;5.88;;;2.55;;
70247;SDS011;57641;51.416;5.506;2022-10-19T11:57:23;7.57;;;2.72;;
70247;SDS011;57641;51.416;5.506;2022-10-19T12:00:08;7.03;;;2.80;;
70247;SDS011;57641;51.416;5.506;2022-10-19T12:07:43;8.13;;;2.58;;
70247;SDS011;57641;51.416;5.506;2022-10-19T12:10:23;8.25;;;2.63;;
70247;SDS011;57641;51.416;5.506;2022-10-19T12:12:50;7.72;;;2.80;;
70247;SDS011;57641;51.416;5.506;2022-10-19T12:15:21;7.80;;;2.75;;
70247;SDS011;57641;51.416;5.506;2022-10-19T12:17:56;4.78;;;2.13;;
70247;SDS011;57641;51.416;5.506;2022-10-19T12:20:47;8.45;;;2.47;;
70247;SDS011;57641;51.416;5.506;2022-10-19T12:23:27;3.67;;;2.05;;
70247;SDS011;57641;51.416;5.506;2022-10-19T12:25:55;4.80;;;2.63;;
70247;SDS011;57641;51.416;5.506;2022-10-19T12:28:36;6.25;;;2.08;;
70247;SDS011;57641;51.416;5.506;2022-10-19T12:31:04;6.88;;;2.83;;
70247;SDS011;57641;51.416;5.506;2022-10-19T12:36:14;7.07;;;2.20;;
70247;SDS011;57641;51.416;5.506;2022-10-19T12:49:43;4.70;;;2.40;;
70247;SDS011;57641;51.416;5.506;2022-10-19T12:52:11;4.45;;;2.28;;
70247;SDS011;57641;51.416;5.506;2022-10-19T12:54:39;5.32;;;2.30;;
70247;SDS011;57641;51.416;5.506;2022-10-19T13:00:23;7.30;;;2.38;;
70247;SDS011;57641;51.416;5.506;2022-10-19T13:03:33;4.90;;;1.95;;
70247;SDS011;57641;51.416;5.506;2022-10-19T13:05:58;5.10;;;2.20;;
70247;SDS011;57641;51.416;5.506;2022-10-19T13:08:28;7.63;;;2.97;;
70247;SDS011;57641;51.416;5.506;2022-10-19T13:11:07;5.78;;;2.58;;
70247;SDS011;57641;51.416;5.506;2022-10-19T13:13:52;6.80;;;2.20;;
70247;SDS011;57641;51.416;5.506;2022-10-19T13:29:24;5.20;;;2.20;;
70247;SDS011;57641;51.416;5.506;2022-10-19T13:31:50;4.57;;;2.03;;
70247;SDS011;57641;51.416;5.506;2022-10-19T13:34:16;8.45;;;2.70;;
70247;SDS011;57641;51.416;5.506;2022-10-19T13:37:01;6.40;;;2.42;;
70247;SDS011;57641;51.416;5.506;2022-10-19T13:39:27;6.68;;;2.83;;
70247;SDS011;57641;51.416;5.506;2022-10-19T13:41:54;5.78;;;2.72;;
70247;SDS011;57641;51.416;5.506;2022-10-19T13:44:25;6.65;;;2.60;;
70247;SDS011;57641;51.416;5.506;2022-10-19T13:58:38;8.95;;;2.60;;
70247;SDS011;57641;51.416;5.506;2022-10-19T14:06:51;5.22;;;2.00;;
70247;SDS011;57641;51.416;5.506;2022-10-19T14:12:00;5.03;;;1.55;;
70247;SDS011;57641;51.416;5.506;2022-10-19T14:14:48;4.93;;;1.73;;
70247;SDS011;57641;51.416;5.506;2022-10-19T14:17:18;7.50;;;1.85;;
70247;SDS011;57641;51.416;5.506;2022-10-19T14:19:49;5.50;;;1.52;;
70247;SDS011;57641;51.416;5.506;2022-10-19T14:22:19;6.55;;;1.90;;
70247;SDS011;57641;51.416;5.506;2022-10-19T14:24:48;7.43;;;2.25;;
70247;SDS011;57641;51.416;5.506;2022-10-19T14:27:23;5.30;;;1.70;;
70247;SDS011;57641;51.416;5.506;2022-10-19T14:29:50;5.97;;;2.22;;
70247;SDS011;57641;51.416;5.506;2022-10-19T14:32:27;2.97;;;1.60;;
70247;SDS011;57641;51.416;5.506;2022-10-19T14:34:55;5.72;;;1.73;;
70247;SDS011;57641;51.416;5.506;2022-10-19T14:37:26;2.85;;;1.30;;
70247;SDS011;57641;51.416;5.506;2022-10-19T14:40:05;5.93;;;1.50;;
70247;SDS011;57641;51.416;5.506;2022-10-19T14:42:35;4.45;;;1.40;;
70247;SDS011;57641;51.416;5.506;2022-10-19T14:47:54;7.78;;;1.90;;
70247;SDS011;57641;51.416;5.506;2022-10-19T14:50:44;3.80;;;1.95;;
70247;SDS011;57641;51.416;5.506;2022-10-19T14:53:30;2.97;;;1.58;;
70247;SDS011;57641;51.416;5.506;2022-10-19T14:56:13;7.05;;;1.45;;
70247;SDS011;57641;51.416;5.506;2022-10-19T14:58:46;6.30;;;1.70;;
70247;SDS011;57641;51.416;5.506;2022-10-19T15:01:16;4.70;;;1.50;;
70247;SDS011;57641;51.416;5.506;2022-10-19T15:03:44;5.57;;;1.60;;
70247;SDS011;57641;51.416;5.506;2022-10-19T15:06:24;4.95;;;1.42;;
70247;SDS011;57641;51.416;5.506;2022-10-19T15:09:03;4.53;;;1.70;;
70247;SDS011;57641;51.416;5.506;2022-10-19T15:11:38;3.15;;;1.40;;
70247;SDS011;57641;51.416;5.506;2022-10-19T15:14:12;4.18;;;1.35;;
70247;SDS011;57641;51.416;5.506;2022-10-19T15:19:22;5.60;;;2.10;;
70247;SDS011;57641;51.416;5.506;2022-10-19T15:24:33;2.72;;;1.60;;
70247;SDS011;57641;51.416;5.506;2022-10-19T15:27:10;4.15;;;1.33;;
70247;SDS011;57641;51.416;5.506;2022-10-19T15:29:53;4.63;;;1.98;;
70247;SDS011;57641;51.416;5.506;2022-10-19T15:33:07;4.72;;;1.60;;
70247;SDS011;57641;51.416;5.506;2022-10-19T15:35:31;6.28;;;1.60;;
70247;SDS011;57641;51.416;5.506;2022-10-19T15:40:28;3.63;;;1.27;;
70247;SDS011;57641;51.416;5.506;2022-10-19T15:42:55;4.03;;;1.50;;
70247;SDS011;57641;51.416;5.506;2022-10-19T15:50:46;6.30;;;1.40;;
70247;SDS011;57641;51.416;5.506;2022-10-19T15:53:13;4.40;;;1.77;;
70247;SDS011;57641;51.416;5.506;2022-10-19T15:55:39;4.68;;;1.58;;
70247;SDS011;57641;51.416;5.506;2022-10-19T15:58:04;6.65;;;1.98;;
70247;SDS011;57641;51.416;5.506;2022-10-19T16:00:30;4.65;;;1.63;;
70247;SDS011;57641;51.416;5.506;2022-10-19T16:02:56;7.05;;;1.58;;
70247;SDS011;57641;51.416;5.506;2022-10-19T16:05:22;6.80;;;1.42;;
70247;SDS011;57641;51.416;5.506;2022-10-19T16:07:48;4.43;;;1.80;;
70247;SDS011;57641;51.416;5.506;2022-10-19T16:10:18;8.00;;;1.98;;
70247;SDS011;57641;51.416;5.506;2022-10-19T16:12:45;6.15;;;2.08;;
70247;SDS011;57641;51.416;5.506;2022-10-19T16:15:15;5.32;;;1.98;;
70247;SDS011;57641;51.416;5.506;2022-10-19T16:17:50;3.05;;;1.65;;
70247;SDS011;57641;51.416;5.506;2022-10-19T16:20:18;6.10;;;2.28;;
70247;SDS011;57641;51.416;5.506;2022-10-19T16:22:44;8.70;;;4.20;;
70247;SDS011;57641;51.416;5.506;2022-10-19T16:25:11;7.30;;;3.63;;
70247;SDS011;57641;51.416;5.506;2022-10-19T16:27:36;4.47;;;3.05;;
70247;SDS011;57641;51.416;5.506;2022-10-19T16:30:03;5.78;;;2.83;;
70247;SDS011;57641;51.416;5.506;2022-10-19T16:32:33;5.78;;;2.25;;
70247;SDS011;57641;51.416;5.506;2022-10-19T16:34:58;6.47;;;2.58;;
70247;SDS011;57641;51.416;5.506;2022-10-19T16:37:24;9.23;;;2.65;;
70247;SDS011;57641;51.416;5.506;2022-10-19T16:39:50;6.82;;;2.70;;
70247;SDS011;57641;51.416;5.506;2022-10-19T16:42:15;6.75;;;2.75;;
70247;SDS011;57641;51.416;5.506;2022-10-19T16:44:41;8.45;;;2.83;;
70247;SDS011;57641;51.416;5.506;2022-10-19T16:47:06;4.47;;;2.63;;
70247;SDS011;57641;51.416;5.506;2022-10-19T16:49:32;8.02;;;2.75;;
70247;SDS011;57641;51.416;5.506;2022-10-19T16:51:57;7.38;;;2.70;;
70247;SDS011;57641;51.416;5.506;2022-10-19T16:54:24;5.90;;;2.72;;
70247;SDS011;57641;51.416;5.506;2022-10-19T16:56:54;9.63;;;3.20;;
70247;SDS011;57641;51.416;5.506;2022-10-19T16:59:26;7.28;;;3.55;;
70247;SDS011;57641;51.416;5.506;2022-10-19T17:01:51;7.78;;;3.13;;
70247;SDS011;57641;51.416;5.506;2022-10-19T17:04:17;6.63;;;2.72;;
70247;SDS011;57641;51.416;5.506;2022-10-19T17:06:43;6.93;;;2.65;;
70247;SDS011;57641;51.416;5.506;2022-10-19T17:09:08;8.18;;;3.35;;
70247;SDS011;57641;51.416;5.506;2022-10-19T17:11:34;8.77;;;3.40;;
70247;SDS011;57641;51.416;5.506;2022-10-19T17:14:06;6.40;;;3.25;;
70247;SDS011;57641;51.416;5.506;2022-10-19T17:16:35;10.25;;;3.88;;
70247;SDS011;57641;51.416;5.506;2022-10-19T17:19:01;5.38;;;3.13;;
70247;SDS011;57641;51.416;5.506;2022-10-19T17:21:30;8.55;;;3.60;;
70247;SDS011;57641;51.416;5.506;2022-10-19T17:24:24;10.77;;;3.30;;
70247;SDS011;57641;51.416;5.506;2022-10-19T17:26:50;7.00;;;3.75;;
70247;SDS011;57641;51.416;5.506;2022-10-19T17:29:18;7.93;;;3.80;;